Time;durP1;ratioP1;P1;durP2;ratioP2;P2;SDS_P1;SDS_P2;PMS_P1;PMS_P2;Temp;Humidity;BMP_temperature;BMP_pressure;BME280_temperature;BME280_humidity;BME280_pressure;Samples;Min_cycle;Max_cycle;Signal;HPM_P1;HPM_P2
2021/05/19 00:02:14;;;;;;;0.73;0.52;;;9.60;83.20;;;;;;4993969;28;20091;-72
2021/05/19 00:04:40;;;;;;;0.80;0.70;;;9.50;83.30;;;;;;4993983;28;20068;-72
2021/05/19 00:07:05;;;;;;;0.90;0.80;;;9.50;83.50;;;;;;4993558;28;20497;-72
2021/05/19 00:09:32;;;;;;;0.65;0.65;;;9.40;83.50;;;;;;5008797;28;20172;-72
2021/05/19 00:11:57;;;;;;;0.80;0.80;;;9.30;83.60;;;;;;4993953;28;20520;-72
2021/05/19 00:14:23;;;;;;;0.88;0.88;;;9.30;83.80;;;;;;4993560;28;20490;-72
2021/05/19 00:16:49;;;;;;;0.77;0.70;;;9.30;83.90;;;;;;4993787;28;20034;-72
2021/05/19 00:19:16;;;;;;;0.93;0.93;;;9.30;83.90;;;;;;4992474;28;20022;-71
2021/05/19 00:21:42;;;;;;;0.68;0.57;;;9.30;83.70;;;;;;4991785;28;20014;-71
2021/05/19 00:24:09;;;;;;;0.68;0.60;;;9.30;83.70;;;;;;4993767;28;20045;-71
2021/05/19 00:26:35;;;;;;;0.70;0.70;;;9.40;83.60;;;;;;4992512;28;20112;-72
2021/05/19 00:29:01;;;;;;;0.50;0.50;;;9.40;83.50;;;;;;4993798;28;20474;-72
2021/05/19 00:31:32;;;;;;;0.68;0.68;;;9.40;83.40;;;;;;4992278;28;20129;-71
2021/05/19 00:33:58;;;;;;;0.95;0.90;;;9.40;83.40;;;;;;4993528;28;20057;-72
2021/05/19 00:36:23;;;;;;;0.93;0.80;;;9.40;83.40;;;;;;4993236;28;20383;-72
2021/05/19 00:38:49;;;;;;;1.10;1.08;;;9.40;83.30;;;;;;4991610;28;20039;-71
2021/05/19 00:41:15;;;;;;;0.95;0.95;;;9.50;83.30;;;;;;5008466;28;20418;-71
2021/05/19 00:43:40;;;;;;;0.77;0.77;;;9.40;83.20;;;;;;4993598;28;20033;-71
2021/05/19 00:46:06;;;;;;;1.08;1.00;;;9.40;83.30;;;;;;4979605;28;20023;-71
2021/05/19 00:48:33;;;;;;;0.85;0.70;;;9.40;83.30;;;;;;4974667;28;20058;-71
2021/05/19 00:50:58;;;;;;;1.65;0.70;;;9.40;83.40;;;;;;4986892;28;20031;-71
2021/05/19 00:53:24;;;;;;;1.15;1.05;;;9.40;83.50;;;;;;4993273;28;20107;-71
2021/05/19 00:55:50;;;;;;;1.27;1.02;;;9.40;83.50;;;;;;4993401;28;20033;-72
2021/05/19 00:58:15;;;;;;;1.10;1.02;;;9.40;83.60;;;;;;4993252;28;20034;-71
2021/05/19 01:00:41;;;;;;;2.30;1.23;;;9.40;83.70;;;;;;4993380;28;20058;-72
2021/05/19 01:03:07;;;;;;;0.98;0.80;;;9.30;83.70;;;;;;4993055;28;20264;-72
2021/05/19 01:10:43;;;;;;;1.30;0.80;;;9.20;84.10;;;;;;4974897;28;20085;-71
2021/05/19 01:13:09;;;;;;;1.27;0.70;;;9.20;84.20;;;;;;4993339;28;20023;-72
2021/05/19 01:15:35;;;;;;;1.08;0.90;;;9.20;84.20;;;;;;4993329;28;20467;-71
2021/05/19 01:18:03;;;;;;;1.40;1.30;;;9.30;84.20;;;;;;4992814;28;20121;-71
2021/05/19 01:20:29;;;;;;;0.98;0.95;;;9.40;84.00;;;;;;4992521;28;20363;-71
2021/05/19 01:22:55;;;;;;;0.85;0.85;;;9.50;83.80;;;;;;4993308;28;20026;-71
2021/05/19 01:25:21;;;;;;;1.10;0.98;;;9.60;83.60;;;;;;4994136;28;20058;-71
2021/05/19 01:27:52;;;;;;;1.50;1.10;;;9.70;83.50;;;;;;4996646;28;20027;-71
2021/05/19 01:30:18;;;;;;;1.38;1.23;;;9.80;83.30;;;;;;4995101;28;20519;-73
2021/05/19 01:32:43;;;;;;;1.60;1.40;;;9.90;83.30;;;;;;4996028;28;20030;-71
2021/05/19 01:35:09;;;;;;;1.48;1.17;;;10.00;83.20;;;;;;4996290;28;20045;-72
2021/05/19 01:37:37;;;;;;;2.25;0.80;;;10.10;83.10;;;;;;4996383;28;20501;-71
2021/05/19 01:40:04;;;;;;;0.88;0.88;;;10.10;83.10;;;;;;4996096;28;20430;-71
2021/05/19 01:42:30;;;;;;;1.15;1.05;;;10.10;83.10;;;;;;4996231;28;20426;-71
2021/05/19 01:44:55;;;;;;;1.35;1.20;;;10.10;83.20;;;;;;4996214;28;20043;-71
2021/05/19 01:47:36;;;;;;;1.75;1.55;;;10.10;83.40;;;;;;4996266;28;20423;-71
2021/05/19 01:50:02;;;;;;;1.20;1.10;;;10.10;83.50;;;;;;4995084;28;20072;-71
2021/05/19 01:52:28;;;;;;;1.23;1.15;;;10.10;83.60;;;;;;4996010;28;20046;-71
2021/05/19 01:54:53;;;;;;;1.40;1.30;;;10.10;83.60;;;;;;4996104;28;20042;-71
2021/05/19 01:57:19;;;;;;;0.93;0.75;;;10.10;83.60;;;;;;4995899;28;20038;-71
2021/05/19 01:59:45;;;;;;;1.45;1.10;;;10.00;83.60;;;;;;4995184;28;20451;-71
2021/05/19 02:02:11;;;;;;;1.13;1.02;;;10.00;83.70;;;;;;4995857;28;20054;-71
2021/05/19 02:04:39;;;;;;;1.10;1.00;;;10.00;83.70;;;;;;4994836;28;20026;-71
2021/05/19 02:07:05;;;;;;;1.38;1.27;;;10.00;83.80;;;;;;4995607;28;20383;-71
2021/05/19 02:09:31;;;;;;;1.48;1.20;;;10.00;83.80;;;;;;4995732;28;20034;-71
2021/05/19 02:11:57;;;;;;;1.70;1.40;;;9.90;83.90;;;;;;4995382;28;20109;-71
2021/05/19 02:14:22;;;;;;;1.67;1.35;;;9.90;83.90;;;;;;4996001;28;20518;-71
2021/05/19 02:16:48;;;;;;;1.70;1.40;;;9.90;84.10;;;;;;4995565;28;20018;-71
2021/05/19 02:19:14;;;;;;;1.70;1.60;;;9.90;84.10;;;;;;4994785;28;20041;-71
2021/05/19 02:21:48;;;;;;;1.52;1.40;;;9.80;84.10;;;;;;4995322;28;20084;-71
2021/05/19 02:24:14;;;;;;;1.70;1.60;;;9.80;84.10;;;;;;4995655;28;20035;-72
2021/05/19 02:26:40;;;;;;;2.15;1.85;;;9.80;84.10;;;;;;4995415;28;20030;-71
2021/05/19 02:29:06;;;;;;;1.20;1.10;;;9.80;84.10;;;;;;4995638;28;20030;-71
2021/05/19 02:31:32;;;;;;;1.70;1.60;;;9.80;84.10;;;;;;4994220;28;20463;-71
2021/05/19 02:33:58;;;;;;;2.33;1.63;;;9.80;84.20;;;;;;4994672;28;20030;-71
2021/05/19 02:36:24;;;;;;;1.73;1.20;;;9.70;84.20;;;;;;4995276;28;20447;-71
2021/05/19 02:38:50;;;;;;;2.17;1.50;;;9.80;84.30;;;;;;4994888;28;20478;-70
2021/05/19 02:41:15;;;;;;;1.30;1.20;;;9.70;84.30;;;;;;4994669;28;20054;-71
2021/05/19 02:43:41;;;;;;;1.40;1.10;;;9.70;84.30;;;;;;4995054;28;20020;-71
2021/05/19 02:46:06;;;;;;;1.48;1.15;;;9.70;84.30;;;;;;4995494;28;20364;-72
2021/05/19 02:48:32;;;;;;;2.25;1.73;;;9.70;84.30;;;;;;4994486;28;20554;-71
2021/05/19 02:50:58;;;;;;;1.98;1.52;;;9.70;84.30;;;;;;4994269;28;20057;-71
2021/05/19 02:53:23;;;;;;;2.50;1.85;;;9.70;84.30;;;;;;4994758;28;20037;-71
2021/05/19 02:55:49;;;;;;;2.50;1.80;;;9.70;84.30;;;;;;4994933;28;20074;-71
2021/05/19 02:58:15;;;;;;;2.47;1.70;;;9.60;84.30;;;;;;4995125;28;20038;-71
2021/05/19 03:00:40;;;;;;;2.50;2.00;;;9.60;84.40;;;;;;4994316;28;20030;-71
2021/05/19 03:03:06;;;;;;;2.05;1.55;;;9.60;84.50;;;;;;5009493;28;20132;-71
2021/05/19 03:05:32;;;;;;;2.20;1.90;;;9.60;84.60;;;;;;4994575;28;20026;-71
2021/05/19 03:07:57;;;;;;;2.88;2.63;;;9.50;84.50;;;;;;5009739;28;20526;-71
2021/05/19 03:10:23;;;;;;;3.55;2.33;;;9.50;84.50;;;;;;4994629;28;20018;-71
2021/05/19 03:12:51;;;;;;;2.78;2.10;;;9.50;84.60;;;;;;4994512;28;20097;-72
2021/05/19 03:15:17;;;;;;;2.72;2.22;;;9.50;84.70;;;;;;4994543;28;20023;-71
2021/05/19 03:17:43;;;;;;;2.63;2.00;;;9.50;84.80;;;;;;4994062;28;20502;-71
2021/05/19 03:20:09;;;;;;;1.83;1.50;;;9.40;84.70;;;;;;4994504;28;20026;-71
2021/05/19 03:22:34;;;;;;;3.22;2.15;;;9.40;84.80;;;;;;4994564;28;20022;-71
2021/05/19 03:25:00;;;;;;;2.00;1.80;;;9.50;84.90;;;;;;4994556;28;20386;-71
2021/05/19 03:27:26;;;;;;;3.90;2.40;;;9.40;84.80;;;;;;4994436;28;20493;-71
2021/05/19 03:29:52;;;;;;;3.28;2.35;;;9.40;84.70;;;;;;4993964;28;20026;-71
2021/05/19 03:32:18;;;;;;;2.25;2.05;;;9.40;84.70;;;;;;4994348;28;20220;-71
2021/05/19 03:34:44;;;;;;;3.15;2.60;;;9.50;84.80;;;;;;4994193;28;20526;-71
2021/05/19 03:37:09;;;;;;;2.40;1.80;;;9.50;84.80;;;;;;4993973;28;20053;-71
2021/05/19 03:39:34;;;;;;;2.60;2.03;;;9.40;84.80;;;;;;4993764;28;20038;-71
2021/05/19 03:42:00;;;;;;;3.03;1.83;;;9.40;84.80;;;;;;4994139;28;20475;-71
2021/05/19 03:44:26;;;;;;;3.00;1.98;;;9.50;84.80;;;;;;4993678;28;20475;-71
2021/05/19 03:46:53;;;;;;;2.75;2.33;;;9.50;84.80;;;;;;4994142;28;20034;-71
2021/05/19 03:49:19;;;;;;;2.40;2.20;;;9.50;84.80;;;;;;4993924;28;20475;-71
2021/05/19 03:51:45;;;;;;;2.35;2.03;;;9.50;84.70;;;;;;4993400;28;20034;-71
2021/05/19 03:54:10;;;;;;;2.70;1.95;;;9.60;84.70;;;;;;4993317;28;20026;-71
2021/05/19 03:56:36;;;;;;;2.88;2.20;;;9.60;84.60;;;;;;4993918;28;20034;-71
2021/05/19 03:59:02;;;;;;;2.20;1.85;;;9.60;84.60;;;;;;4992823;28;20048;-71
2021/05/19 04:01:28;;;;;;;2.42;2.20;;;9.60;84.60;;;;;;4994068;28;20023;-71
2021/05/19 04:03:53;;;;;;;3.25;2.42;;;9.60;84.70;;;;;;4984078;28;20042;-72
2021/05/19 04:06:22;;;;;;;3.15;2.00;;;9.70;84.70;;;;;;4984036;28;20029;-72
2021/05/19 04:08:47;;;;;;;2.40;1.95;;;9.70;84.70;;;;;;4993922;28;20038;-72
2021/05/19 04:11:13;;;;;;;3.15;2.35;;;9.70;84.70;;;;;;4993564;28;20475;-72
2021/05/19 04:13:39;;;;;;;2.55;2.20;;;9.80;84.70;;;;;;4993288;28;20368;-71
2021/05/19 04:16:05;;;;;;;3.78;2.33;;;9.80;84.60;;;;;;4993514;28;20034;-71
2021/05/19 04:18:30;;;;;;;2.80;1.98;;;9.80;84.70;;;;;;4993820;28;20039;-71
2021/05/19 04:20:56;;;;;;;2.83;2.38;;;9.80;84.70;;;;;;4988511;28;20034;-71
2021/05/19 04:23:24;;;;;;;3.70;2.05;;;9.90;84.70;;;;;;4993533;28;20025;-71
2021/05/19 04:25:49;;;;;;;2.92;2.28;;;9.90;84.70;;;;;;4993630;28;20025;-71
2021/05/19 04:28:15;;;;;;;2.45;2.05;;;9.90;84.70;;;;;;4993129;28;20379;-71
2021/05/19 04:30:40;;;;;;;3.15;1.83;;;9.90;84.80;;;;;;4993845;28;20026;-71
2021/05/19 04:33:06;;;;;;;2.63;2.00;;;9.90;84.80;;;;;;4993631;28;20502;-71
2021/05/19 04:35:33;;;;;;;3.13;2.33;;;9.90;84.80;;;;;;4993441;28;20046;-72
2021/05/19 04:37:59;;;;;;;2.42;2.03;;;10.00;84.90;;;;;;4993307;28;20050;-72
2021/05/19 04:40:25;;;;;;;2.40;2.08;;;10.00;84.80;;;;;;4993511;28;20533;-72
2021/05/19 04:42:50;;;;;;;2.47;1.83;;;10.00;84.80;;;;;;4992907;28;20054;-71
2021/05/19 04:45:16;;;;;;;2.55;2.20;;;10.00;84.80;;;;;;4993612;28;20023;-71
2021/05/19 04:47:42;;;;;;;2.85;1.75;;;10.00;84.90;;;;;;4993679;28;20022;-71
2021/05/19 04:50:10;;;;;;;4.00;2.58;;;10.10;84.80;;;;;;4991963;28;20435;-72
2021/05/19 04:52:36;;;;;;;4.05;2.35;;;10.10;84.90;;;;;;4993317;28;20125;-71
2021/05/19 04:55:05;;;;;;;2.63;1.92;;;10.10;84.90;;;;;;4993226;28;20026;-71
2021/05/19 04:57:31;;;;;;;3.33;2.23;;;10.10;84.90;;;;;;4993120;28;20037;-71
2021/05/19 04:59:56;;;;;;;2.28;2.05;;;10.10;84.90;;;;;;4993931;28;20277;-71
2021/05/19 05:02:22;;;;;;;2.47;1.95;;;10.10;84.90;;;;;;4997162;28;20023;-71
2021/05/19 05:04:47;;;;;;;3.40;2.25;;;10.10;84.90;;;;;;4997254;28;20030;-71
2021/05/19 05:07:13;;;;;;;3.33;2.42;;;10.20;85.00;;;;;;4997112;28;20031;-71
2021/05/19 05:09:38;;;;;;;2.20;1.95;;;10.20;85.00;;;;;;4996762;28;20026;-71
2021/05/19 05:12:04;;;;;;;2.28;1.70;;;10.30;84.90;;;;;;4996812;28;20030;-71
2021/05/19 05:14:29;;;;;;;2.45;1.85;;;10.30;84.90;;;;;;4996737;28;20015;-71
2021/05/19 05:16:55;;;;;;;3.00;1.90;;;10.40;84.90;;;;;;4996883;28;20402;-71
2021/05/19 05:19:21;;;;;;;3.00;2.10;;;10.40;84.90;;;;;;4996595;28;20049;-71
2021/05/19 05:21:46;;;;;;;2.88;1.98;;;10.50;84.90;;;;;;4996868;28;20565;-71
2021/05/19 05:24:12;;;;;;;3.03;2.13;;;10.50;84.90;;;;;;4996928;28;20110;-71
2021/05/19 05:26:37;;;;;;;3.40;2.47;;;10.60;84.80;;;;;;4996132;28;20379;-71
2021/05/19 05:29:03;;;;;;;2.45;1.80;;;10.60;85.30;;;;;;4995877;28;20022;-72
2021/05/19 05:31:29;;;;;;;2.03;1.60;;;10.70;84.70;;;;;;4996647;28;20069;-72
2021/05/19 05:33:54;;;;;;;2.22;1.73;;;10.80;84.70;;;;;;4996220;28;20050;-71
2021/05/19 05:36:20;;;;;;;1.60;1.50;;;10.80;84.60;;;;;;4996715;28;20101;-71
2021/05/19 05:38:46;;;;;;;1.98;1.63;;;10.90;84.50;;;;;;4995824;28;20038;-71
2021/05/19 05:41:11;;;;;;;2.25;2.05;;;11.00;84.50;;;;;;4995715;28;20034;-72
2021/05/19 05:43:37;;;;;;;2.58;1.90;;;11.10;84.40;;;;;;4994898;28;20031;-71
2021/05/19 05:46:02;;;;;;;2.83;2.42;;;11.10;84.30;;;;;;4996145;28;20479;-71
2021/05/19 05:48:28;;;;;;;2.72;2.13;;;11.20;84.30;;;;;;4996053;28;20034;-71
2021/05/19 05:50:54;;;;;;;2.50;2.03;;;11.20;84.30;;;;;;4991561;28;20050;-72
2021/05/19 05:53:20;;;;;;;2.42;2.20;;;11.20;84.30;;;;;;4986989;28;20478;-71
2021/05/19 05:55:45;;;;;;;2.55;2.05;;;11.20;84.40;;;;;;4995780;28;20018;-71
2021/05/19 05:58:11;;;;;;;2.65;1.98;;;11.20;84.50;;;;;;4996210;28;20121;-72
2021/05/19 06:00:37;;;;;;;3.85;2.10;;;11.20;84.70;;;;;;4996096;28;20463;-72
2021/05/19 06:03:04;;;;;;;2.85;2.33;;;11.20;84.70;;;;;;4996194;28;20022;-72
2021/05/19 06:05:30;;;;;;;2.45;2.00;;;11.20;84.60;;;;;;4995173;28;20014;-72
2021/05/19 06:07:55;;;;;;;3.15;2.38;;;11.20;84.70;;;;;;4995763;28;20023;-72
2021/05/19 06:10:21;;;;;;;3.97;2.40;;;11.20;84.80;;;;;;4994438;28;20483;-72
2021/05/19 06:12:46;;;;;;;3.08;2.47;;;11.20;84.90;;;;;;4978230;28;20031;-72
2021/05/19 06:15:12;;;;;;;2.53;2.00;;;11.30;85.00;;;;;;4994301;28;20026;-72
2021/05/19 06:17:38;;;;;;;2.53;2.25;;;11.30;85.00;;;;;;4995869;28;20092;-72
2021/05/19 06:20:04;;;;;;;2.65;2.42;;;11.30;84.90;;;;;;4995851;28;20029;-72
2021/05/19 06:22:30;;;;;;;2.28;1.98;;;11.30;85.00;;;;;;4995575;28;20025;-72
2021/05/19 06:24:56;;;;;;;2.75;2.13;;;11.40;85.10;;;;;;4994895;28;20033;-71
2021/05/19 06:27:21;;;;;;;4.00;2.75;;;11.40;85.00;;;;;;4994542;28;20018;-71
2021/05/19 06:29:47;;;;;;;5.00;3.10;;;11.60;84.90;;;;;;4995591;28;20033;-71
2021/05/19 06:32:12;;;;;;;5.35;2.70;;;11.70;84.60;;;;;;4995309;28;20022;-71
2021/05/19 06:34:38;;;;;;;3.35;2.28;;;11.80;84.40;;;;;;4995801;28;20529;-71
2021/05/19 06:37:05;;;;;;;2.75;2.42;;;12.10;84.50;;;;;;4995458;28;20022;-71
2021/05/19 06:39:31;;;;;;;3.40;2.53;;;12.20;84.20;;;;;;4994889;28;20125;-71
2021/05/19 06:41:57;;;;;;;4.00;3.15;;;12.30;84.10;;;;;;4995374;28;20046;-71
2021/05/19 06:44:22;;;;;;;2.92;2.28;;;12.30;83.90;;;;;;4995467;28;20061;-72
2021/05/19 06:46:50;;;;;;;4.65;3.13;;;12.40;84.00;;;;;;4995253;28;20521;-72
2021/05/19 06:49:15;;;;;;;2.83;2.33;;;12.50;84.00;;;;;;4995093;28;20027;-70
2021/05/19 06:51:42;;;;;;;4.18;3.17;;;12.40;84.00;;;;;;4994860;28;20101;-71
2021/05/19 06:54:09;;;;;;;5.07;2.75;;;12.50;84.20;;;;;;4994478;28;20034;-71
2021/05/19 06:56:34;;;;;;;3.25;2.30;;;12.50;84.00;;;;;;4977700;28;20030;-71
2021/05/19 06:59:01;;;;;;;4.63;2.65;;;12.60;84.20;;;;;;4979935;28;20027;-71
2021/05/19 07:01:26;;;;;;;4.43;2.67;;;12.50;84.20;;;;;;4995272;28;20046;-71
2021/05/19 07:03:52;;;;;;;3.80;3.03;;;12.50;84.40;;;;;;4994904;28;20514;-71
2021/05/19 07:06:19;;;;;;;6.28;3.70;;;12.60;84.40;;;;;;4994318;28;20085;-71
2021/05/19 07:08:44;;;;;;;3.35;2.42;;;12.60;84.40;;;;;;4977436;28;20035;-72
2021/05/19 07:11:10;;;;;;;4.10;3.28;;;12.70;84.20;;;;;;4978015;28;20025;-71
2021/05/19 07:13:35;;;;;;;4.03;3.13;;;12.70;84.20;;;;;;4990242;28;20068;-72
2021/05/19 07:16:02;;;;;;;4.25;2.53;;;12.80;84.20;;;;;;4992360;28;20029;-72
2021/05/19 07:18:28;;;;;;;5.28;2.83;;;12.80;84.20;;;;;;4992744;28;20042;-72
2021/05/19 07:20:54;;;;;;;3.67;2.47;;;12.90;84.10;;;;;;4994500;28;20501;-72
2021/05/19 07:23:20;;;;;;;3.80;2.38;;;13.00;83.90;;;;;;4990837;28;20033;-72
2021/05/19 07:25:45;;;;;;;4.75;3.17;;;13.10;83.90;;;;;;4975366;28;20113;-72
2021/05/19 07:28:11;;;;;;;5.25;3.08;;;13.10;83.60;;;;;;4994323;28;20045;-72
2021/05/19 07:30:38;;;;;;;3.75;3.08;;;13.10;83.90;;;;;;4994389;28;20019;-72
2021/05/19 07:33:06;;;;;;;5.07;3.40;;;13.10;84.00;;;;;;4992731;28;20482;-71
2021/05/19 07:35:31;;;;;;;4.55;2.88;;;13.20;83.80;;;;;;4989974;28;20018;-72
2021/05/19 07:37:57;;;;;;;4.65;3.17;;;13.20;83.80;;;;;;4985989;28;20030;-71
2021/05/19 07:40:23;;;;;;;5.18;2.97;;;13.20;83.60;;;;;;4993423;28;20046;-71
2021/05/19 07:42:49;;;;;;;4.78;3.20;;;13.20;84.00;;;;;;5007727;28;20022;-72
2021/05/19 07:45:15;;;;;;;3.22;2.50;;;13.20;84.00;;;;;;4993820;28;20109;-72
2021/05/19 07:47:41;;;;;;;5.75;3.70;;;13.20;84.00;;;;;;4988713;28;20027;-72
2021/05/19 07:50:07;;;;;;;4.57;3.38;;;13.30;83.80;;;;;;4993130;28;20038;-72
2021/05/19 07:52:33;;;;;;;4.18;2.58;;;13.30;83.90;;;;;;4988963;28;20026;-71
2021/05/19 07:54:59;;;;;;;5.13;2.85;;;13.30;83.90;;;;;;4985095;28;20113;-71
2021/05/19 07:57:39;;;;;;;3.80;2.25;;;13.30;83.90;;;;;;4992313;28;20026;-72
2021/05/19 08:00:12;;;;;;;4.53;2.63;;;13.50;83.80;;;;;;4974341;28;20519;-72
2021/05/19 08:02:38;;;;;;;3.55;2.80;;;13.60;83.60;;;;;;4993865;28;20117;-71
2021/05/19 08:05:04;;;;;;;3.88;2.85;;;13.70;84.00;;;;;;4993746;28;20606;-71
2021/05/19 08:07:29;;;;;;;4.43;3.35;;;13.70;83.50;;;;;;4993137;28;20455;-71
2021/05/19 08:09:54;;;;;;;4.03;2.83;;;13.60;83.50;;;;;;4993629;28;20022;-71
2021/05/19 08:12:20;;;;;;;4.00;2.90;;;13.60;83.60;;;;;;4993501;28;20482;-70
2021/05/19 08:14:46;;;;;;;3.78;2.70;;;13.40;83.60;;;;;;4990834;28;20098;-71
2021/05/19 08:17:12;;;;;;;5.90;4.07;;;13.30;84.00;;;;;;4992423;28;20027;-72
2021/05/19 08:19:38;;;;;;;5.25;3.88;;;13.20;84.30;;;;;;4993371;28;20026;-71
2021/05/19 08:22:04;;;;;;;6.38;3.65;;;13.20;84.40;;;;;;4993278;28;20030;-71
2021/05/19 08:24:29;;;;;;;3.42;2.67;;;13.10;84.40;;;;;;4993900;28;20027;-71
2021/05/19 08:26:55;;;;;;;3.97;2.60;;;13.10;84.40;;;;;;4993426;28;20040;-73
2021/05/19 08:29:20;;;;;;;5.40;3.28;;;13.10;84.50;;;;;;4993500;28;20034;-72
2021/05/19 08:31:46;;;;;;;5.45;3.80;;;13.20;84.20;;;;;;4993665;28;20505;-73
2021/05/19 08:34:12;;;;;;;4.95;3.17;;;13.30;84.00;;;;;;4994595;28;20037;-71
2021/05/19 08:36:38;;;;;;;4.50;2.83;;;13.40;83.90;;;;;;4997008;28;20050;-72
2021/05/19 08:39:04;;;;;;;3.35;2.63;;;13.50;83.70;;;;;;4996479;28;20085;-71
2021/05/19 08:41:30;;;;;;;4.50;3.63;;;13.60;83.60;;;;;;4995064;28;20498;-72
2021/05/19 08:43:55;;;;;;;5.07;2.78;;;13.70;83.30;;;;;;4997489;28;20034;-72
2021/05/19 08:46:20;;;;;;;4.47;2.88;;;13.80;83.30;;;;;;4997397;28;20474;-72
2021/05/19 08:48:53;;;;;;;3.70;3.08;;;13.80;83.20;;;;;;4996862;28;20498;-72
2021/05/19 08:51:19;;;;;;;5.88;3.28;;;13.90;83.00;;;;;;4997263;28;20033;-72
2021/05/19 08:53:45;;;;;;;3.70;2.85;;;13.90;83.00;;;;;;4997182;28;20038;-71
2021/05/19 08:56:12;;;;;;;4.30;3.13;;;14.00;82.90;;;;;;4997306;28;20375;-72
2021/05/19 08:58:38;;;;;;;3.20;2.50;;;14.10;83.10;;;;;;4996425;28;20038;-71
2021/05/19 09:01:04;;;;;;;4.28;3.05;;;14.20;83.00;;;;;;4995660;28;20379;-73
2021/05/19 09:03:36;;;;;;;3.38;2.97;;;14.30;82.60;;;;;;4996084;28;20022;-72
2021/05/19 09:06:07;;;;;;;4.07;3.00;;;14.40;82.30;;;;;;5011524;28;20026;-71
2021/05/19 09:08:37;;;;;;;4.32;2.60;;;14.60;82.30;;;;;;4995846;28;20023;-71
2021/05/19 09:11:04;;;;;;;3.58;2.75;;;14.80;82.10;;;;;;4996843;28;20023;-71
2021/05/19 09:13:42;;;;;;;4.28;3.05;;;15.00;81.70;;;;;;4996620;28;20033;-71
2021/05/19 09:16:09;;;;;;;5.10;3.30;;;15.20;81.60;;;;;;4996945;28;20050;-71
2021/05/19 09:18:55;;;;;;;4.00;2.63;;;15.40;81.40;;;;;;4994980;28;20038;-71
2021/05/19 09:21:32;;;;;;;2.92;2.47;;;15.90;80.80;;;;;;4996801;28;20471;-71
2021/05/19 09:23:58;;;;;;;3.20;2.35;;;16.30;80.30;;;;;;5011753;28;20022;-72
2021/05/19 09:26:24;;;;;;;3.38;2.30;;;16.50;80.00;;;;;;4996682;28;20046;-71
2021/05/19 09:28:50;;;;;;;3.55;2.80;;;16.60;80.00;;;;;;4996546;28;20053;-71
2021/05/19 09:31:22;;;;;;;5.05;3.30;;;16.80;80.00;;;;;;4996649;28;20029;-72
2021/05/19 09:33:50;;;;;;;3.83;2.95;;;17.00;79.70;;;;;;4996353;28;20045;-73
2021/05/19 09:36:20;;;;;;;4.43;3.08;;;17.00;79.70;;;;;;4996480;28;20064;-73
2021/05/19 09:38:49;;;;;;;4.47;3.40;;;16.90;79.80;;;;;;4996284;28;20097;-74
2021/05/19 09:41:32;;;;;;;4.18;3.10;;;16.80;79.80;;;;;;4995128;28;20511;-73
2021/05/19 09:43:59;;;;;;;3.55;2.78;;;16.60;80.40;;;;;;4995430;28;20026;-72
2021/05/19 09:49:21;;;;;;;5.43;3.22;;;16.40;80.50;;;;;;4996248;28;20035;-72
2021/05/19 09:51:52;;;;;;;4.18;3.20;;;16.10;81.20;;;;;;4996506;28;20022;-72
2021/05/19 09:54:39;;;;;;;5.28;3.35;;;15.90;81.90;;;;;;4996224;28;20022;-71
2021/05/19 09:57:07;;;;;;;4.45;3.45;;;15.90;81.90;;;;;;4995045;28;20037;-71
2021/05/19 09:59:34;;;;;;;4.35;3.17;;;15.90;82.10;;;;;;4994659;28;20034;-71
2021/05/19 10:02:01;;;;;;;4.80;3.30;;;16.00;81.60;;;;;;4995655;28;20034;-71
2021/05/19 10:04:38;;;;;;;4.60;3.75;;;16.20;81.10;;;;;;4996045;28;20036;-71
2021/05/19 10:07:09;;;;;;;3.97;3.15;;;16.30;80.80;;;;;;4996149;28;20124;-72
2021/05/19 10:09:34;;;;;;;5.28;3.33;;;16.40;80.80;;;;;;4995946;28;20106;-72
2021/05/19 10:12:00;;;;;;;3.70;2.80;;;16.50;80.40;;;;;;4995748;28;20097;-72
2021/05/19 10:14:26;;;;;;;3.67;2.90;;;16.40;80.50;;;;;;4995423;28;20033;-72
2021/05/19 10:17:05;;;;;;;4.32;3.03;;;16.30;80.80;;;;;;4994173;28;20077;-72
2021/05/19 10:19:38;;;;;;;4.60;3.10;;;16.10;81.10;;;;;;4995622;28;20031;-72
2021/05/19 10:22:09;;;;;;;4.40;3.30;;;16.00;81.40;;;;;;4995867;28;20018;-71
2021/05/19 10:24:48;;;;;;;5.75;2.90;;;16.00;81.50;;;;;;4995683;28;20455;-71
2021/05/19 10:27:15;;;;;;;3.42;2.67;;;16.10;81.10;;;;;;4995692;28;20161;-70
2021/05/19 10:29:47;;;;;;;3.22;2.65;;;16.20;81.00;;;;;;4995591;28;20581;-72
2021/05/19 10:32:22;;;;;;;3.70;2.97;;;16.40;80.50;;;;;;4994006;28;20069;-71
2021/05/19 10:34:49;;;;;;;4.30;3.38;;;16.40;80.40;;;;;;4995624;28;20026;-71
2021/05/19 10:37:27;;;;;;;4.00;3.28;;;16.40;80.50;;;;;;4995319;28;20112;-71
2021/05/19 10:40:12;;;;;;;4.82;3.45;;;16.40;80.60;;;;;;4995390;28;20579;-71
2021/05/19 10:42:43;;;;;;;4.93;3.15;;;16.50;80.40;;;;;;4995262;28;20185;-71
2021/05/19 10:45:15;;;;;;;3.38;3.08;;;16.60;80.10;;;;;;4995055;28;20506;-71
2021/05/19 10:47:42;;;;;;;3.53;2.92;;;16.70;80.00;;;;;;4995266;28;20030;-71
2021/05/19 10:50:16;;;;;;;4.25;2.40;;;16.80;79.80;;;;;;4993854;28;20066;-73
2021/05/19 10:57:13;;;;;;;2.50;2.08;;;16.40;79.50;;;;;;4993913;28;20386;-72
2021/05/19 10:58:32;;;;;;;1.42;1.10;;;14.40;82.20;;;;;;4994189;28;20049;-74
2021/05/19 11:00:58;;;;;;;0.85;0.85;;;13.70;83.00;;;;;;4993268;28;20030;-72
2021/05/19 11:03:24;;;;;;;0.60;0.60;;;13.10;83.50;;;;;;4994852;28;20088;-71
2021/05/19 11:05:52;;;;;;;0.60;0.60;;;12.80;83.90;;;;;;4994941;28;20033;-72
2021/05/19 11:08:23;;;;;;;0.63;0.63;;;12.40;84.00;;;;;;4995087;28;20170;-73
2021/05/19 11:10:53;;;;;;;0.45;0.45;;;11.90;84.70;;;;;;4994824;28;20459;-72
2021/05/19 11:13:21;;;;;;;0.30;0.30;;;11.20;85.80;;;;;;4994933;28;20023;-71
2021/05/19 11:16:04;;;;;;;0.40;0.30;;;10.70;86.90;;;;;;4994080;28;20015;-73
2021/05/19 11:21:17;;;;;;;0.40;0.40;;;9.90;88.00;;;;;;4994964;28;20064;-72
2021/05/19 11:23:58;;;;;;;0.20;0.20;;;9.70;87.90;;;;;;4989580;28;20026;-73
2021/05/19 11:26:24;;;;;;;0.52;0.52;;;9.60;87.70;;;;;;4991732;28;20022;-73
2021/05/19 11:28:56;;;;;;;0.57;0.28;;;9.50;87.50;;;;;;4980439;28;20038;-73
2021/05/19 11:31:23;;;;;;;0.28;0.28;;;9.50;87.50;;;;;;4994228;28;20014;-71
2021/05/19 11:33:57;;;;;;;0.13;0.13;;;9.50;87.20;;;;;;4994490;28;20053;-71
2021/05/19 11:36:35;;;;;;;0.20;0.20;;;9.50;87.00;;;;;;4994474;28;20019;-71
2021/05/19 11:39:22;;;;;;;0.28;0.28;;;9.50;86.80;;;;;;4980317;28;20103;-72
2021/05/19 11:41:49;;;;;;;0.32;0.32;;;9.50;86.70;;;;;;4975103;28;20399;-72
2021/05/19 11:44:34;;;;;;;0.38;0.38;;;9.40;86.70;;;;;;4974368;28;20019;-71
2021/05/19 11:47:01;;;;;;;0.20;0.20;;;9.40;86.80;;;;;;4974816;28;20027;-71
2021/05/19 11:49:27;;;;;;;0.20;0.20;;;9.40;87.10;;;;;;4974848;28;20029;-71
2021/05/19 11:51:53;;;;;;;0.28;0.28;;;9.40;87.10;;;;;;4975790;28;20038;-70
2021/05/19 11:54:21;;;;;;;0.70;0.57;;;9.50;87.00;;;;;;4974713;28;20045;-71
2021/05/19 11:56:53;;;;;;;0.30;0.30;;;9.50;86.90;;;;;;4974656;28;20022;-72
2021/05/19 11:59:21;;;;;;;0.57;0.38;;;9.50;87.10;;;;;;4992637;28;20038;-72
2021/05/19 12:02:04;;;;;;;0.50;0.50;;;9.40;87.10;;;;;;4994015;28;20033;-73
2021/05/19 12:04:33;;;;;;;0.30;0.30;;;9.40;87.20;;;;;;4986211;28;20038;-73
2021/05/19 12:07:02;;;;;;;0.28;0.28;;;9.50;87.30;;;;;;4991143;28;20029;-72
2021/05/19 12:09:30;;;;;;;0.20;0.20;;;9.50;87.20;;;;;;4984784;28;20019;-72
2021/05/19 12:12:04;;;;;;;0.30;0.30;;;9.60;87.10;;;;;;4973830;28;20031;-73
2021/05/19 12:14:30;;;;;;;0.30;0.30;;;9.70;86.90;;;;;;4989623;28;20018;-72
2021/05/19 12:16:56;;;;;;;0.40;0.40;;;9.80;86.90;;;;;;4993651;28;20034;-74
2021/05/19 12:19:26;;;;;;;0.17;0.17;;;10.00;86.70;;;;;;4993890;28;20082;-72
2021/05/19 12:22:22;;;;;;;0.20;0.20;;;10.10;86.50;;;;;;4988973;28;20022;-72
2021/05/19 12:24:53;;;;;;;0.45;0.45;;;10.20;86.30;;;;;;4990555;28;20023;-72
2021/05/19 12:27:21;;;;;;;0.30;0.30;;;10.30;86.30;;;;;;4992969;28;20070;-72
2021/05/19 12:29:50;;;;;;;0.30;0.30;;;10.50;86.30;;;;;;4982744;28;20038;-72
2021/05/19 12:32:20;;;;;;;0.28;0.28;;;10.70;86.10;;;;;;4979627;28;20031;-73
2021/05/19 12:35:00;;;;;;;0.20;0.20;;;10.80;85.90;;;;;;4985204;28;20348;-72
2021/05/19 12:37:39;;;;;;;0.15;0.15;;;10.90;85.90;;;;;;4993543;28;20026;-72
2021/05/19 12:40:07;;;;;;;0.22;0.20;;;11.10;85.70;;;;;;4992130;28;20097;-72
2021/05/19 12:42:51;;;;;;;0.10;0.10;;;11.20;85.70;;;;;;4993091;28;20034;-72
2021/05/19 12:45:26;;;;;;;0.20;0.20;;;11.50;85.60;;;;;;4991604;28;20022;-72
2021/05/19 12:48:10;;;;;;;0.45;0.30;;;11.80;85.20;;;;;;4990997;28;20061;-72
2021/05/19 12:50:49;;;;;;;0.20;0.20;;;12.00;85.00;;;;;;4987324;28;20030;-72
2021/05/19 12:53:43;;;;;;;0.20;0.20;;;12.20;84.80;;;;;;4990973;28;20027;-72
2021/05/19 12:56:22;;;;;;;0.10;0.10;;;12.40;85.50;;;;;;4990581;28;20491;-72
2021/05/19 12:58:49;;;;;;;0.30;0.30;;;12.50;84.80;;;;;;4985876;28;20038;-72
2021/05/19 13:01:15;;;;;;;0.20;0.20;;;12.70;84.80;;;;;;4978533;28;20034;-71
2021/05/19 13:03:41;;;;;;;0.10;0.10;;;12.90;84.60;;;;;;4990789;28;20152;-71
2021/05/19 13:06:07;;;;;;;0.20;0.20;;;12.80;84.60;;;;;;4990703;28;20022;-72
2021/05/19 13:08:34;;;;;;;0.20;0.20;;;12.70;85.00;;;;;;4990761;28;20038;-71